Time;durP1;ratioP1;P1;durP2;ratioP2;P2;SDS_P1;SDS_P2;PMS_P1;PMS_P2;Temp;Humidity;BMP_temperature;BMP_pressure;BME280_temperature;BME280_humidity;BME280_pressure;Samples;Min_cycle;Max_cycle;Signal;HPM_P1;HPM_P2
2022/08/07 00:01:04;;;;;;;0.60;0.40;;;22.20;49.80;;;;;;5060440;28;20050;-51
2022/08/07 00:03:30;;;;;;;1.77;0.60;;;22.20;49.80;;;;;;5060765;28;20044;-51
2022/08/07 00:05:55;;;;;;;0.63;0.60;;;22.20;49.90;;;;;;5060584;28;20422;-49
2022/08/07 00:08:21;;;;;;;0.85;0.80;;;22.10;49.90;;;;;;5060218;28;20028;-50
2022/08/07 00:10:47;;;;;;;0.63;0.63;;;22.20;49.90;;;;;;5041696;28;20027;-52
2022/08/07 00:13:13;;;;;;;0.45;0.43;;;22.10;49.90;;;;;;5059347;28;20426;-50
2022/08/07 00:15:38;;;;;;;1.13;0.60;;;22.20;50.00;;;;;;5042686;28;20039;-54
2022/08/07 00:18:04;;;;;;;0.77;0.70;;;22.10;50.00;;;;;;5060215;28;20663;-52
2022/08/07 00:20:29;;;;;;;0.73;0.50;;;22.10;50.00;;;;;;5042750;28;20693;-53
2022/08/07 00:22:55;;;;;;;0.50;0.40;;;22.20;49.80;;;;;;5026076;28;20082;-50
2022/08/07 00:25:23;;;;;;;2.38;0.50;;;22.10;50.00;;;;;;5060550;28;20587;-50
2022/08/07 00:27:49;;;;;;;1.13;0.68;;;22.10;50.10;;;;;;5060306;28;20529;-54
2022/08/07 00:30:14;;;;;;;1.15;0.60;;;22.20;50.00;;;;;;5059751;28;20025;-53
2022/08/07 00:32:40;;;;;;;1.15;0.50;;;22.20;50.10;;;;;;5042315;28;20811;-50
2022/08/07 00:35:06;;;;;;;0.68;0.50;;;22.20;50.10;;;;;;5060403;28;20028;-52
2022/08/07 00:37:31;;;;;;;0.47;0.47;;;22.20;50.00;;;;;;5059939;28;20021;-51
2022/08/07 00:39:57;;;;;;;3.30;1.00;;;22.10;50.10;;;;;;5058848;28;20109;-52
2022/08/07 00:42:23;;;;;;;0.40;0.40;;;22.10;49.80;;;;;;5060339;28;20039;-51
2022/08/07 00:44:48;;;;;;;2.58;0.43;;;22.10;50.10;;;;;;5059078;28;20024;-51
2022/08/07 00:47:14;;;;;;;0.88;0.52;;;22.10;50.00;;;;;;5048255;28;20451;-51
2022/08/07 00:49:39;;;;;;;0.85;0.63;;;22.10;50.00;;;;;;5058469;28;20024;-50
2022/08/07 00:52:06;;;;;;;0.80;0.50;;;22.10;50.00;;;;;;5059061;28;20077;-51
2022/08/07 00:54:31;;;;;;;0.60;0.40;;;22.10;50.00;;;;;;5060058;28;20111;-53
2022/08/07 00:56:57;;;;;;;0.80;0.57;;;22.10;50.10;;;;;;5042187;28;20494;-50
2022/08/07 00:59:22;;;;;;;0.65;0.50;;;22.10;50.10;;;;;;5059343;28;20032;-54
2022/08/07 01:01:49;;;;;;;0.75;0.50;;;22.10;50.10;;;;;;5024380;28;20544;-53
2022/08/07 01:04:15;;;;;;;0.52;0.47;;;22.10;50.20;;;;;;5042475;28;20067;-50
2022/08/07 01:06:40;;;;;;;1.27;0.35;;;22.10;50.10;;;;;;5059139;28;20048;-50
2022/08/07 01:09:06;;;;;;;0.80;0.50;;;22.10;49.80;;;;;;5058699;28;20085;-50
2022/08/07 01:11:31;;;;;;;1.27;0.60;;;22.10;50.20;;;;;;5059162;28;20560;-53
2022/08/07 01:13:57;;;;;;;0.50;0.38;;;22.10;50.20;;;;;;5024366;28;20063;-49
2022/08/07 01:16:22;;;;;;;1.38;0.50;;;22.10;50.20;;;;;;5058908;28;20024;-49
2022/08/07 01:18:48;;;;;;;0.75;0.47;;;22.00;50.10;;;;;;5039996;28;20025;-51
2022/08/07 01:21:15;;;;;;;1.52;0.70;;;22.00;50.90;;;;;;5058963;28;20032;-49
2022/08/07 01:23:42;;;;;;;1.70;0.40;;;22.10;50.30;;;;;;5040254;28;20028;-51
2022/08/07 01:26:09;;;;;;;1.33;0.47;;;22.00;50.20;;;;;;5041323;28;20443;-52
2022/08/07 01:28:35;;;;;;;0.75;0.47;;;22.10;50.10;;;;;;5058089;28;20029;-51
2022/08/07 01:31:01;;;;;;;0.73;0.70;;;22.00;50.00;;;;;;5059087;28;20048;-52
2022/08/07 01:33:26;;;;;;;0.43;0.43;;;22.00;50.10;;;;;;5041911;28;20063;-54
2022/08/07 01:35:52;;;;;;;0.98;0.70;;;22.00;50.20;;;;;;5041454;28;20583;-53
2022/08/07 01:38:18;;;;;;;3.83;0.80;;;22.00;50.20;;;;;;5060244;28;20024;-51
2022/08/07 01:40:44;;;;;;;1.08;0.85;;;22.00;50.20;;;;;;5059040;28;20033;-50
2022/08/07 01:43:09;;;;;;;1.52;0.73;;;22.00;50.00;;;;;;5039666;28;20037;-51
2022/08/07 01:45:35;;;;;;;0.70;0.60;;;22.00;50.10;;;;;;5024185;28;20114;-51
2022/08/07 01:48:01;;;;;;;1.10;0.70;;;22.00;50.10;;;;;;5058680;28;20194;-50
2022/08/07 01:50:27;;;;;;;0.90;0.60;;;22.00;50.10;;;;;;5058519;28;20115;-51
2022/08/07 01:52:53;;;;;;;1.02;0.68;;;21.90;50.10;;;;;;5040112;28;20452;-51
2022/08/07 01:55:18;;;;;;;0.80;0.50;;;22.00;50.10;;;;;;5040984;28;20028;-51
2022/08/07 01:57:44;;;;;;;0.60;0.60;;;22.00;50.20;;;;;;5023813;28;20074;-52
2022/08/07 02:00:11;;;;;;;1.55;0.80;;;22.00;50.20;;;;;;5023181;28;20025;-53
2022/08/07 02:02:59;;;;;;;1.63;0.65;;;21.90;50.10;;;;;;5058127;28;20027;-50
2022/08/07 02:05:32;;;;;;;1.00;0.50;;;21.90;50.10;;;;;;5040359;28;20025;-52
2022/08/07 02:07:58;;;;;;;1.48;0.60;;;22.00;50.20;;;;;;5040507;28;20211;-54
2022/08/07 02:10:24;;;;;;;0.88;0.70;;;21.90;50.10;;;;;;5058297;28;20517;-54
2022/08/07 02:12:50;;;;;;;0.77;0.65;;;21.90;50.20;;;;;;5023932;28;20064;-54
2022/08/07 02:15:17;;;;;;;1.23;1.00;;;21.90;50.00;;;;;;4990245;28;20113;-51
2022/08/07 02:17:43;;;;;;;1.20;0.85;;;21.90;50.60;;;;;;4984813;28;20193;-53
2022/08/07 02:20:08;;;;;;;1.45;0.70;;;21.90;50.10;;;;;;5016682;28;20033;-52
2022/08/07 02:22:37;;;;;;;0.70;0.70;;;21.90;50.10;;;;;;5036942;28;20056;-53
2022/08/07 02:25:04;;;;;;;1.02;0.70;;;21.90;50.00;;;;;;5037020;28;20106;-52
2022/08/07 02:27:30;;;;;;;0.65;0.57;;;21.90;50.20;;;;;;5020732;28;20035;-49
2022/08/07 02:29:57;;;;;;;1.00;0.70;;;21.90;50.80;;;;;;5036821;28;20432;-49
2022/08/07 02:32:22;;;;;;;1.27;0.60;;;21.90;50.10;;;;;;5037159;28;20024;-52
2022/08/07 02:34:48;;;;;;;0.60;0.60;;;21.90;50.20;;;;;;5038666;28;20033;-49
2022/08/07 02:37:13;;;;;;;0.40;0.40;;;21.90;50.30;;;;;;5038707;28;20024;-51
2022/08/07 02:39:39;;;;;;;0.98;0.80;;;21.90;50.30;;;;;;5019225;28;20656;-49
2022/08/07 02:42:05;;;;;;;0.95;0.60;;;21.90;50.30;;;;;;5036891;28;20028;-48
2022/08/07 02:44:30;;;;;;;0.70;0.55;;;21.90;50.20;;;;;;5038234;28;20025;-48
2022/08/07 02:46:56;;;;;;;0.85;0.70;;;21.90;50.00;;;;;;5020684;28;20037;-50
2022/08/07 02:49:21;;;;;;;0.55;0.43;;;21.80;50.20;;;;;;5019444;28;20037;-49
2022/08/07 02:51:47;;;;;;;0.50;0.40;;;21.90;50.30;;;;;;5020426;28;20112;-53
2022/08/07 02:54:14;;;;;;;1.58;0.55;;;21.90;50.20;;;;;;5020512;28;20045;-52
2022/08/07 02:56:39;;;;;;;2.83;0.40;;;21.80;50.30;;;;;;5020650;28;20040;-54
2022/08/07 02:59:08;;;;;;;0.70;0.50;;;21.80;50.10;;;;;;5018827;28;20036;-53
2022/08/07 03:01:35;;;;;;;0.50;0.40;;;21.80;50.30;;;;;;5037465;28;20033;-50
2022/08/07 03:04:00;;;;;;;0.75;0.40;;;21.80;50.10;;;;;;5037497;28;20378;-50
2022/08/07 03:06:26;;;;;;;1.15;0.60;;;21.80;50.00;;;;;;5035723;28;20555;-51
2022/08/07 03:08:51;;;;;;;3.20;0.95;;;21.80;50.10;;;;;;5035842;28;20025;-53
2022/08/07 03:11:17;;;;;;;2.53;0.70;;;21.80;50.10;;;;;;5035883;28;20036;-52
2022/08/07 03:13:42;;;;;;;4.68;0.57;;;21.80;50.70;;;;;;5036160;28;20029;-50
2022/08/07 03:16:08;;;;;;;1.48;0.57;;;21.80;50.00;;;;;;5038213;28;20508;-53
2022/08/07 03:18:33;;;;;;;0.50;0.40;;;21.80;50.00;;;;;;5037648;28;20036;-55
2022/08/07 03:20:59;;;;;;;0.60;0.40;;;21.80;49.80;;;;;;5021411;28;20029;-55
2022/08/07 03:23:25;;;;;;;0.40;0.40;;;21.80;49.70;;;;;;5035588;28;20021;-49
2022/08/07 03:25:50;;;;;;;1.58;0.60;;;21.70;49.90;;;;;;5020854;28;20517;-49
2022/08/07 03:28:16;;;;;;;0.90;0.47;;;21.70;49.90;;;;;;5020079;28;20037;-53
2022/08/07 03:30:41;;;;;;;2.25;0.40;;;21.70;50.00;;;;;;5033598;28;20098;-55
2022/08/07 03:33:07;;;;;;;0.60;0.50;;;21.70;50.00;;;;;;5035175;28;20087;-53
2022/08/07 03:35:32;;;;;;;0.70;0.43;;;21.70;50.00;;;;;;5046078;28;20111;-53
2022/08/07 03:38:00;;;;;;;1.30;0.60;;;21.70;50.00;;;;;;5024044;28;20021;-51
2022/08/07 03:40:26;;;;;;;1.30;0.50;;;21.70;50.00;;;;;;5039819;28;20036;-50
2022/08/07 03:42:51;;;;;;;0.40;0.40;;;21.70;50.10;;;;;;5023131;28;20549;-50
2022/08/07 03:45:21;;;;;;;0.82;0.47;;;21.70;50.20;;;;;;5023418;28;20017;-50
2022/08/07 03:47:46;;;;;;;0.40;0.30;;;21.70;50.80;;;;;;5041594;28;20033;-50
2022/08/07 03:50:12;;;;;;;1.23;0.40;;;21.70;50.10;;;;;;5040294;28;20039;-51
2022/08/07 03:52:37;;;;;;;1.70;0.40;;;21.60;50.10;;;;;;5040954;28;20435;-51
2022/08/07 03:55:03;;;;;;;0.65;0.43;;;21.70;50.10;;;;;;5023049;28;20024;-54
2022/08/07 03:57:29;;;;;;;1.50;0.60;;;21.70;50.00;;;;;;5041602;28;20051;-53
2022/08/07 03:59:54;;;;;;;1.60;0.40;;;21.60;50.00;;;;;;5038686;28;20045;-52
2022/08/07 04:02:20;;;;;;;0.40;0.40;;;21.60;50.10;;;;;;5039508;28;20111;-50
2022/08/07 04:04:46;;;;;;;0.75;0.50;;;21.60;50.10;;;;;;5040271;28;20044;-50
2022/08/07 04:07:11;;;;;;;1.60;0.50;;;21.60;50.00;;;;;;5035323;28;20025;-50
2022/08/07 04:09:37;;;;;;;1.50;0.40;;;21.60;49.90;;;;;;5051291;28;20440;-51
2022/08/07 04:12:04;;;;;;;0.40;0.40;;;21.60;49.80;;;;;;5040497;28;20029;-49
2022/08/07 04:14:29;;;;;;;0.50;0.40;;;21.60;49.90;;;;;;5039632;28;20029;-52
2022/08/07 04:16:55;;;;;;;0.57;0.30;;;21.60;49.80;;;;;;5023116;28;20032;-52
2022/08/07 04:19:20;;;;;;;2.40;0.40;;;21.60;50.00;;;;;;5039186;28;20029;-53
2022/08/07 04:21:46;;;;;;;0.28;0.20;;;21.60;50.00;;;;;;5039411;28;20258;-53
2022/08/07 04:24:11;;;;;;;0.55;0.40;;;21.60;50.00;;;;;;5037639;28;20033;-53
2022/08/07 04:26:39;;;;;;;1.15;0.40;;;21.60;50.00;;;;;;5037995;28;20025;-51
2022/08/07 04:29:05;;;;;;;3.05;0.73;;;21.60;50.00;;;;;;5037836;28;20036;-52
2022/08/07 04:31:31;;;;;;;0.98;0.57;;;21.60;50.00;;;;;;5039464;28;20033;-50
2022/08/07 04:33:56;;;;;;;1.98;0.50;;;21.60;50.00;;;;;;5039558;28;20071;-50
2022/08/07 04:36:22;;;;;;;0.47;0.47;;;21.60;50.00;;;;;;5037534;28;20520;-52
2022/08/07 04:38:47;;;;;;;0.75;0.50;;;21.70;49.80;;;;;;5038490;28;20079;-52
2022/08/07 04:41:13;;;;;;;1.02;0.50;;;21.60;49.90;;;;;;5022335;28;20048;-49
2022/08/07 04:43:39;;;;;;;1.67;0.47;;;21.70;49.70;;;;;;5040514;28;20059;-53
2022/08/07 04:46:17;;;;;;;0.45;0.40;;;21.60;49.80;;;;;;5022028;28;20485;-52
2022/08/07 04:48:59;;;;;;;1.25;0.40;;;21.70;49.90;;;;;;5039367;28;20029;-50
2022/08/07 04:51:36;;;;;;;1.05;0.50;;;21.70;49.90;;;;;;5038802;28;20575;-52
2022/08/07 04:54:38;;;;;;;2.00;0.60;;;21.60;50.20;;;;;;5061983;22;20036;-51
2022/08/07 04:57:16;;;;;;;1.23;0.50;;;21.70;50.10;;;;;;5043776;28;20553;-51
2022/08/07 04:59:49;;;;;;;1.13;0.75;;;21.60;49.90;;;;;;5038685;28;20104;-50
2022/08/07 05:03:03;;;;;;;4.82;1.05;;;21.60;49.70;;;;;;5040045;28;20036;-51
2022/08/07 05:05:43;;;;;;;1.63;0.60;;;21.50;49.70;;;;;;5059772;28;20112;-51
2022/08/07 05:08:17;;;;;;;0.45;0.45;;;21.60;49.80;;;;;;5023860;28;20193;-49
2022/08/07 05:10:56;;;;;;;2.67;0.55;;;21.60;48.90;;;;;;5037951;28;20421;-48
2022/08/07 05:13:27;;;;;;;1.05;0.50;;;21.60;49.10;;;;;;5038146;28;20025;-48
2022/08/07 05:15:53;;;;;;;0.52;0.52;;;21.60;49.50;;;;;;5037826;28;20056;-53
2022/08/07 05:18:22;;;;;;;0.95;0.60;;;21.60;49.50;;;;;;5038386;28;20049;-52
2022/08/07 05:20:49;;;;;;;0.55;0.55;;;21.60;49.10;;;;;;5037796;28;20061;-49
2022/08/07 05:23:31;;;;;;;3.03;0.60;;;21.60;49.20;;;;;;5016904;28;20033;-49
2022/08/07 05:25:56;;;;;;;1.13;0.57;;;21.60;49.50;;;;;;5002350;28;20040;-50
2022/08/07 05:28:22;;;;;;;2.20;0.80;;;21.60;49.10;;;;;;5037244;28;20029;-50
2022/08/07 05:30:47;;;;;;;1.27;0.70;;;21.60;49.50;;;;;;5037493;28;20445;-51
2022/08/07 05:33:13;;;;;;;1.00;0.60;;;21.60;48.80;;;;;;5038299;28;20076;-51
2022/08/07 05:35:39;;;;;;;0.70;0.55;;;21.50;47.00;;;;;;5040017;28;20489;-51
2022/08/07 05:38:05;;;;;;;0.50;0.50;;;21.50;48.50;;;;;;5038049;28;20087;-51
2022/08/07 05:40:31;;;;;;;1.30;0.47;;;21.50;48.70;;;;;;5038601;28;20128;-49
2022/08/07 05:42:57;;;;;;;1.17;0.60;;;21.60;48.70;;;;;;5037659;28;20148;-50
2022/08/07 05:45:23;;;;;;;1.65;0.50;;;21.60;47.80;;;;;;5039365;28;20124;-51
2022/08/07 05:47:48;;;;;;;0.70;0.50;;;21.50;48.00;;;;;;5020047;28;20325;-51
2022/08/07 05:50:13;;;;;;;1.58;0.50;;;21.50;46.70;;;;;;5036393;28;20131;-51
2022/08/07 05:52:39;;;;;;;1.17;0.52;;;21.40;45.80;;;;;;5037004;28;20044;-50
2022/08/07 05:55:06;;;;;;;0.93;0.60;;;21.30;43.80;;;;;;5039574;28;20471;-50
2022/08/07 05:57:32;;;;;;;1.23;0.50;;;21.30;47.30;;;;;;5037669;28;20039;-52
2022/08/07 05:59:59;;;;;;;1.67;0.60;;;21.30;47.20;;;;;;5038112;28;20037;-49
2022/08/07 06:02:25;;;;;;;1.00;0.50;;;21.40;47.80;;;;;;5036829;28;20087;-53
2022/08/07 06:04:52;;;;;;;0.90;0.50;;;21.40;47.80;;;;;;5037450;28;20072;-51
2022/08/07 06:07:17;;;;;;;1.55;0.52;;;21.50;47.90;;;;;;5020823;28;20025;-52
2022/08/07 06:09:43;;;;;;;1.10;0.60;;;21.40;46.40;;;;;;5036694;28;20525;-51
2022/08/07 06:12:09;;;;;;;3.75;0.60;;;21.50;47.40;;;;;;5023542;28;20066;-51
2022/08/07 06:14:34;;;;;;;2.03;0.50;;;21.50;48.20;;;;;;5020894;28;20086;-52
2022/08/07 06:17:00;;;;;;;3.28;0.60;;;21.50;48.50;;;;;;5041256;28;20029;-53
2022/08/07 06:19:26;;;;;;;2.90;0.60;;;21.50;47.50;;;;;;5057130;28;20508;-52
2022/08/07 06:21:52;;;;;;;1.10;0.70;;;21.50;46.60;;;;;;5056814;28;20039;-53
2022/08/07 06:24:17;;;;;;;0.75;0.75;;;21.50;44.00;;;;;;5040463;28;20029;-49
2022/08/07 06:26:43;;;;;;;2.03;0.82;;;21.50;46.40;;;;;;5043823;28;20827;-49
2022/08/07 06:29:08;;;;;;;3.15;0.70;;;21.50;45.80;;;;;;5017121;28;20033;-50
2022/08/07 06:31:34;;;;;;;1.85;0.68;;;21.50;43.80;;;;;;5019442;28;20037;-51
2022/08/07 06:34:00;;;;;;;1.35;0.57;;;21.20;45.30;;;;;;5034414;28;20111;-50
2022/08/07 06:36:25;;;;;;;2.88;0.70;;;21.30;44.80;;;;;;5037254;28;20036;-51
2022/08/07 06:38:51;;;;;;;0.73;0.40;;;21.30;45.80;;;;;;5036386;28;20040;-50
2022/08/07 06:41:23;;;;;;;1.73;0.50;;;21.30;44.40;;;;;;5038100;28;20079;-49
2022/08/07 06:43:48;;;;;;;2.13;0.47;;;21.20;43.60;;;;;;5036706;28;20033;-49
2022/08/07 06:46:14;;;;;;;1.13;0.43;;;21.20;43.30;;;;;;5037157;28;20025;-48
2022/08/07 06:48:40;;;;;;;2.75;0.40;;;21.00;42.20;;;;;;5036212;28;20600;-49
2022/08/07 06:51:07;;;;;;;0.98;0.40;;;21.10;45.20;;;;;;5037127;28;20032;-49
2022/08/07 06:53:34;;;;;;;3.03;0.80;;;21.20;44.50;;;;;;5020255;28;20091;-48
2022/08/07 06:55:59;;;;;;;1.27;0.40;;;21.30;44.80;;;;;;5010600;28;20048;-48
2022/08/07 06:58:25;;;;;;;3.30;0.55;;;21.30;44.80;;;;;;5037748;28;20170;-56
2022/08/07 07:00:50;;;;;;;3.45;1.05;;;21.40;44.90;;;;;;5024004;28;20507;-50
2022/08/07 07:03:16;;;;;;;4.57;0.80;;;21.30;43.80;;;;;;5042671;28;20025;-47
2022/08/07 07:05:41;;;;;;;2.33;0.90;;;21.30;45.90;;;;;;5041144;28;20029;-49
2022/08/07 07:08:07;;;;;;;0.88;0.60;;;21.30;45.30;;;;;;5042441;28;20388;-51
2022/08/07 07:10:33;;;;;;;2.65;0.60;;;21.20;43.80;;;;;;5042871;28;20603;-50
2022/08/07 07:13:13;;;;;;;2.13;0.60;;;21.10;44.50;;;;;;5041492;28;20483;-49
2022/08/07 07:15:47;;;;;;;5.85;0.77;;;21.20;44.80;;;;;;5023373;28;20040;-48
2022/08/07 07:18:21;;;;;;;0.80;0.50;;;21.20;44.80;;;;;;5041493;28;20059;-50
2022/08/07 07:20:55;;;;;;;0.85;0.50;;;21.20;43.00;;;;;;5039476;28;20643;-48
2022/08/07 07:23:21;;;;;;;1.30;0.70;;;21.20;45.10;;;;;;5024508;28;20376;-50
2022/08/07 07:25:47;;;;;;;1.33;0.50;;;21.20;46.20;;;;;;5023406;28;20705;-50
2022/08/07 07:28:17;;;;;;;2.63;0.80;;;21.20;45.80;;;;;;5041678;28;20040;-48
2022/08/07 07:30:46;;;;;;;2.97;0.47;;;21.20;45.50;;;;;;5039520;28;20037;-47
2022/08/07 07:33:13;;;;;;;2.17;0.50;;;21.20;44.80;;;;;;5022865;28;20532;-49
2022/08/07 07:35:40;;;;;;;1.30;0.70;;;21.10;43.70;;;;;;5040550;28;20041;-51
2022/08/07 07:38:06;;;;;;;1.38;0.43;;;21.10;44.50;;;;;;5039585;28;20593;-50
2022/08/07 07:40:31;;;;;;;1.77;0.50;;;20.90;45.30;;;;;;5040871;28;20029;-47
2022/08/07 07:42:57;;;;;;;2.63;0.68;;;21.00;45.20;;;;;;5040037;28;20091;-48
2022/08/07 07:45:25;;;;;;;2.00;0.60;;;21.00;44.10;;;;;;5043515;28;20025;-48
2022/08/07 07:47:51;;;;;;;1.70;0.50;;;21.10;45.40;;;;;;5046515;28;20074;-49
2022/08/07 07:50:17;;;;;;;1.30;0.63;;;21.10;45.50;;;;;;5042372;28;20028;-49
2022/08/07 07:52:43;;;;;;;2.15;0.63;;;21.10;45.80;;;;;;5046633;28;20033;-51
2022/08/07 07:55:08;;;;;;;1.33;0.60;;;21.20;45.50;;;;;;5043749;28;20055;-49
2022/08/07 07:57:34;;;;;;;0.50;0.43;;;21.10;45.20;;;;;;5061175;28;20745;-49
2022/08/07 08:00:00;;;;;;;1.23;0.57;;;21.10;45.70;;;;;;5026568;28;20107;-48
2022/08/07 08:02:26;;;;;;;1.30;0.60;;;21.10;46.00;;;;;;5037673;28;20060;-50
2022/08/07 08:04:51;;;;;;;1.20;0.60;;;21.10;45.80;;;;;;5063008;28;20447;-51
2022/08/07 08:07:17;;;;;;;3.92;0.63;;;21.10;45.00;;;;;;5063273;28;20735;-47
2022/08/07 08:09:42;;;;;;;0.88;0.63;;;21.00;44.80;;;;;;5045913;28;20101;-50
2022/08/07 08:12:08;;;;;;;1.23;0.70;;;21.00;45.00;;;;;;5064426;28;20028;-51
2022/08/07 08:14:34;;;;;;;3.22;0.65;;;21.00;45.40;;;;;;5062659;28;20107;-48
2022/08/07 08:17:00;;;;;;;1.08;0.70;;;21.10;45.70;;;;;;5063029;28;20420;-49
2022/08/07 08:19:27;;;;;;;0.70;0.68;;;21.10;46.20;;;;;;5045356;28;20039;-52
2022/08/07 08:27:25;;;;;;;0.98;0.60;;;21.00;45.10;;;;;;5080738;28;20709;-48
2022/08/07 08:29:53;;;;;;;3.42;0.77;;;21.00;44.50;;;;;;5062582;28;20504;-49
2022/08/07 08:32:20;;;;;;;1.33;0.60;;;21.00;43.30;;;;;;5046415;28;20032;-49
2022/08/07 08:34:46;;;;;;;1.25;0.60;;;20.90;43.80;;;;;;5062667;28;20036;-48
2022/08/07 08:37:12;;;;;;;1.25;0.70;;;20.80;44.00;;;;;;5045716;28;20085;-47
2022/08/07 08:39:37;;;;;;;1.90;0.60;;;20.90;42.20;;;;;;5045450;28;20032;-50
2022/08/07 08:42:05;;;;;;;1.38;0.50;;;20.80;43.00;;;;;;5078973;28;20040;-48
2022/08/07 08:44:36;;;;;;;1.45;0.80;;;20.80;43.00;;;;;;5045495;28;20097;-48
2022/08/07 08:47:23;;;;;;;2.80;0.50;;;20.90;42.20;;;;;;5080366;28;20416;-51
2022/08/07 08:50:12;;;;;;;2.13;0.60;;;20.80;41.80;;;;;;5046342;28;20028;-50
2022/08/07 08:52:43;;;;;;;1.40;0.38;;;20.80;43.50;;;;;;5061467;28;20085;-49
2022/08/07 08:55:28;;;;;;;0.68;0.50;;;20.80;43.20;;;;;;5061942;28;20499;-49
2022/08/07 08:58:05;;;;;;;2.88;0.60;;;20.90;43.50;;;;;;5064460;28;20028;-51
2022/08/07 09:00:34;;;;;;;1.67;0.45;;;20.90;43.00;;;;;;5079635;28;20397;-49
2022/08/07 09:03:03;;;;;;;1.35;0.68;;;20.90;42.20;;;;;;5045110;28;20032;-50
2022/08/07 09:05:49;;;;;;;1.17;0.43;;;20.80;43.20;;;;;;5045649;28;20035;-49
2022/08/07 09:08:30;;;;;;;0.68;0.50;;;20.80;42.10;;;;;;5080003;28;20021;-49
2022/08/07 09:11:05;;;;;;;1.35;0.57;;;20.80;43.10;;;;;;5079653;28;20028;-50
2022/08/07 09:14:01;;;;;;;1.75;0.38;;;20.80;43.50;;;;;;5045470;28;20515;-50
2022/08/07 09:16:32;;;;;;;3.03;0.50;;;20.80;43.20;;;;;;5064782;28;20417;-49
2022/08/07 09:19:30;;;;;;;1.42;0.50;;;20.80;42.80;;;;;;5061572;28;20032;-51
2022/08/07 09:22:06;;;;;;;2.08;0.80;;;20.90;43.20;;;;;;5063486;28;20090;-51
2022/08/07 09:24:47;;;;;;;2.88;0.70;;;20.80;42.00;;;;;;5031381;28;20042;-50
2022/08/07 09:27:28;;;;;;;1.25;0.77;;;20.80;42.60;;;;;;5044217;28;20028;-51
2022/08/07 09:30:01;;;;;;;0.70;0.50;;;20.80;42.20;;;;;;5026627;28;20098;-52
2022/08/07 09:32:42;;;;;;;1.33;0.60;;;20.80;42.20;;;;;;5061239;28;20136;-53
2022/08/07 09:35:34;;;;;;;0.95;0.50;;;20.80;42.80;;;;;;5061239;28;20082;-51
2022/08/07 09:38:10;;;;;;;1.42;0.63;;;20.90;43.40;;;;;;5059017;28;21456;-50
2022/08/07 09:40:48;;;;;;;2.67;0.63;;;20.90;42.90;;;;;;5059424;28;20048;-51
2022/08/07 09:43:37;;;;;;;1.63;0.60;;;20.80;41.90;;;;;;5060335;28;20025;-49
2022/08/07 09:46:31;;;;;;;1.42;0.60;;;20.90;42.00;;;;;;5011273;28;20033;-48
2022/08/07 09:49:00;;;;;;;1.35;0.50;;;20.80;42.20;;;;;;5040326;28;20588;-52
2022/08/07 09:52:03;;;;;;;0.75;0.47;;;20.90;41.80;;;;;;5042234;28;20028;-51
2022/08/07 09:54:45;;;;;;;0.90;0.43;;;20.80;41.90;;;;;;5060239;28;20037;-49
2022/08/07 09:57:39;;;;;;;2.42;0.73;;;20.90;42.20;;;;;;5026764;28;20036;-50
2022/08/07 10:00:10;;;;;;;1.33;0.60;;;20.80;41.40;;;;;;5059810;28;20458;-48
2022/08/07 10:02:50;;;;;;;1.85;0.77;;;20.80;41.60;;;;;;5060051;28;20047;-53
2022/08/07 10:05:37;;;;;;;1.88;0.50;;;20.80;41.30;;;;;;5026914;28;20347;-51
2022/08/07 10:08:29;;;;;;;1.70;0.60;;;20.90;40.20;;;;;;5060771;28;20052;-49
2022/08/07 10:11:17;;;;;;;2.05;0.55;;;20.80;41.70;;;;;;5041664;28;22360;-51
2022/08/07 10:14:16;;;;;;;1.55;0.57;;;20.90;40.20;;;;;;5041129;28;20036;-51
2022/08/07 10:17:19;;;;;;;3.03;0.70;;;20.90;41.20;;;;;;5059907;28;20020;-51
2022/08/07 10:20:03;;;;;;;0.93;0.52;;;20.90;42.00;;;;;;5058969;28;20074;-52
2022/08/07 10:22:56;;;;;;;3.33;0.65;;;21.00;42.70;;;;;;5041573;28;20059;-50
2022/08/07 10:25:40;;;;;;;2.53;0.63;;;21.00;42.30;;;;;;5059449;28;20021;-52
2022/08/07 10:28:10;;;;;;;0.70;0.60;;;21.00;41.90;;;;;;5043330;28;20029;-52
2022/08/07 10:31:06;;;;;;;1.65;0.50;;;21.00;42.40;;;;;;5059432;28;20363;-50
2022/08/07 10:34:04;;;;;;;3.33;0.85;;;21.00;42.30;;;;;;5008619;28;20313;-49
2022/08/07 10:36:42;;;;;;;2.40;0.60;;;21.00;42.80;;;;;;5021192;28;20035;-51
2022/08/07 10:39:42;;;;;;;1.27;0.80;;;21.00;43.00;;;;;;5063519;28;20028;-52
2022/08/07 10:42:18;;;;;;;0.70;0.57;;;21.10;42.40;;;;;;5030975;28;21086;-51
2022/08/07 10:44:48;;;;;;;1.38;0.77;;;21.10;42.10;;;;;;5046356;28;20071;-50
2022/08/07 10:47:24;;;;;;;5.47;1.33;;;21.10;42.20;;;;;;5057416;28;20036;-49
2022/08/07 10:50:06;;;;;;;1.95;0.57;;;21.10;41.50;;;;;;5047476;28;20114;-47
2022/08/07 10:52:52;;;;;;;1.63;0.60;;;21.10;41.50;;;;;;5048288;28;20029;-53
2022/08/07 10:55:25;;;;;;;1.75;0.77;;;21.10;41.60;;;;;;5041988;28;20768;-51
2022/08/07 10:58:21;;;;;;;0.88;0.70;;;21.10;42.20;;;;;;5054014;28;20033;-50
2022/08/07 11:01:36;;;;;;;1.27;0.90;;;21.10;42.80;;;;;;5067179;28;21501;-50
2022/08/07 11:04:39;;;;;;;4.05;1.00;;;21.20;41.80;;;;;;5027830;28;20098;-50
2022/08/07 11:07:12;;;;;;;1.38;0.70;;;21.30;41.70;;;;;;5061499;28;20081;-51
2022/08/07 11:09:43;;;;;;;2.95;0.82;;;21.20;40.70;;;;;;5049804;28;21761;-50
2022/08/07 11:12:18;;;;;;;2.92;0.50;;;21.20;41.70;;;;;;5035318;28;20406;-50
2022/08/07 11:14:48;;;;;;;;;;;21.10;41.50;;;;;;5065714;28;20170;-53
2022/08/07 11:17:32;;;;;;;4.22;0.80;;;21.20;41.30;;;;;;5050288;28;20364;-49
2022/08/07 11:20:04;;;;;;;1.70;0.60;;;21.20;42.20;;;;;;5044789;28;21552;-49
2022/08/07 11:22:39;;;;;;;2.58;0.73;;;21.20;42.20;;;;;;5032075;28;20041;-52
2022/08/07 11:25:09;;;;;;;;;;;21.20;41.60;;;;;;5037938;28;20029;-50
2022/08/07 11:28:03;;;;;;;0.80;0.60;;;21.20;41.80;;;;;;5058795;28;19915;-52
2022/08/07 11:30:34;;;;;;;3.53;0.50;;;21.30;41.70;;;;;;5026110;28;20051;-51
2022/08/07 11:33:08;;;;;;;1.20;0.60;;;21.20;41.60;;;;;;5025922;28;20033;-50
2022/08/07 11:35:57;;;;;;;1.48;0.77;;;21.20;41.70;;;;;;5041378;28;20021;-51
2022/08/07 11:38:39;;;;;;;3.92;1.52;;;21.30;41.40;;;;;;5004599;28;20040;-50
2022/08/07 11:41:15;;;;;;;2.83;1.40;;;21.30;42.30;;;;;;5041284;28;20119;-50
2022/08/07 11:43:59;;;;;;;2.13;0.73;;;21.30;41.90;;;;;;5041211;28;20117;-54
2022/08/07 11:46:55;;;;;;;1.35;1.00;;;21.30;42.40;;;;;;5026854;28;20067;-50
2022/08/07 11:49:21;;;;;;;;;;;21.40;42.00;;;;;;5027533;28;20108;-52
2022/08/07 11:52:10;;;;;;;1.23;0.60;;;21.40;40.40;;;;;;5043364;28;20358;-49
2022/08/07 11:55:04;;;;;;;2.08;0.60;;;21.30;41.30;;;;;;5040615;28;20237;-52
2022/08/07 11:57:51;;;;;;;0.98;0.60;;;21.30;41.10;;;;;;5041285;28;20029;-52
2022/08/07 12:00:24;;;;;;;1.15;0.57;;;21.30;40.90;;;;;;5024289;28;20544;-52
2022/08/07 12:03:20;;;;;;;0.57;0.40;;;21.30;40.90;;;;;;5028292;28;21801;-51
2022/08/07 12:06:07;;;;;;;1.70;0.60;;;21.40;40.20;;;;;;5044264;28;20033;-48
2022/08/07 12:08:43;;;;;;;1.15;0.68;;;21.30;41.00;;;;;;5027978;28;20040;-50
2022/08/07 12:11:14;;;;;;;1.42;0.60;;;21.30;41.10;;;;;;5048819;28;20036;-50
2022/08/07 12:13:49;;;;;;;2.50;0.60;;;21.30;41.10;;;;;;5044466;28;20036;-51
2022/08/07 12:16:20;;;;;;;1.58;0.40;;;21.30;41.10;;;;;;5043849;28;20446;-52
2022/08/07 12:18:56;;;;;;;1.08;0.70;;;21.40;40.90;;;;;;5059817;28;20754;-48
2022/08/07 12:21:52;;;;;;;3.92;0.95;;;21.30;41.10;;;;;;5037319;28;20394;-49
2022/08/07 12:24:32;;;;;;;0.73;0.40;;;21.40;41.30;;;;;;5064576;28;20028;-53
2022/08/07 12:27:07;;;;;;;0.73;0.50;;;21.40;41.10;;;;;;5047772;28;20055;-50
2022/08/07 12:29:47;;;;;;;1.60;0.60;;;21.40;40.20;;;;;;5064399;28;20047;-50
2022/08/07 12:32:33;;;;;;;1.15;0.90;;;21.40;40.70;;;;;;5085442;22;20020;-64
2022/08/07 12:35:01;;;;;;;1.58;0.60;;;21.40;40.00;;;;;;5016046;28;20053;-67
2022/08/07 12:37:27;;;;;;;2.22;0.73;;;21.50;41.40;;;;;;5044666;28;20112;-68
2022/08/07 12:39:52;;;;;;;2.22;0.68;;;21.50;41.00;;;;;;5047253;28;20031;-67
2022/08/07 12:42:23;;;;;;;1.27;0.57;;;21.50;41.40;;;;;;5044643;28;20037;-66
2022/08/07 12:44:48;;;;;;;0.77;0.30;;;21.50;40.40;;;;;;5013086;28;20037;-68
2022/08/07 12:47:29;;;;;;;3.78;0.60;;;21.50;39.70;;;;;;4975303;28;20030;-68
2022/08/07 12:50:22;;;;;;;1.90;0.60;;;21.50;39.90;;;;;;5020157;28;21422;-69
2022/08/07 12:53:08;;;;;;;2.08;0.93;;;21.50;40.20;;;;;;5044057;28;20329;-68
2022/08/07 12:56:04;;;;;;;2.50;0.70;;;21.50;40.60;;;;;;5015014;28;20128;-69
2022/08/07 12:58:38;;;;;;;4.05;0.70;;;21.60;40.30;;;;;;4983237;28;20032;-69
2022/08/07 13:01:20;;;;;;;1.88;0.70;;;21.60;40.70;;;;;;5002754;28;20034;-69
2022/08/07 13:03:56;;;;;;;1.58;0.60;;;21.50;40.80;;;;;;4987248;28;20066;-68
2022/08/07 13:06:46;;;;;;;2.97;0.55;;;21.50;40.30;;;;;;5005007;28;20034;-69
2022/08/07 13:09:30;;;;;;;3.10;0.50;;;21.60;40.10;;;;;;5008964;28;20026;-69
2022/08/07 13:12:10;;;;;;;0.65;0.52;;;21.60;40.50;;;;;;5017906;28;20034;-69
2022/08/07 13:15:01;;;;;;;1.73;0.63;;;21.50;40.10;;;;;;5015360;28;20030;-69
2022/08/07 13:17:50;;;;;;;2.05;0.80;;;21.60;40.80;;;;;;5004356;28;20048;-69